Time;durP1;ratioP1;P1;durP2;ratioP2;P2;SDS_P1;SDS_P2;PMS_P1;PMS_P2;Temp;Humidity;BMP_temperature;BMP_pressure;BME280_temperature;BME280_humidity;BME280_pressure;Samples;Min_cycle;Max_cycle;Signal;HPM_P1;HPM_P2
2022/03/24 00:02:19;;;;;;;;;;;;;;;21.69;39.51;102501.47;4968030;28;4180;-59
2022/03/24 00:04:45;;;;;;;;;;;;;;;21.70;39.58;102494.31;4974625;28;4097;-59
2022/03/24 00:07:12;;;;;;;;;;;;;;;21.68;39.32;102499.94;4973133;28;5322;-59
2022/03/24 00:09:38;;;;;;;;;;;;;;;21.70;39.48;102502.19;4970142;28;4283;-59
2022/03/24 00:12:06;;;;;;;;;;;;;;;21.69;39.40;102498.56;4973749;28;5361;-59
2022/03/24 00:14:32;;;;;;;;;;;;;;;21.70;39.47;102505.09;4973780;28;4240;-58
2022/03/24 00:16:58;;;;;;;;;;;;;;;21.69;39.49;102498.56;4975289;28;4221;-59
2022/03/24 00:19:26;;;;;;;;;;;;;;;21.69;39.27;102498.56;4975790;28;4164;-58
2022/03/24 00:21:52;;;;;;;;;;;;;;;21.71;39.83;102495.81;4973968;28;4198;-60
2022/03/24 00:24:19;;;;;;;;;;;;;;;21.70;39.71;102494.31;4975566;28;4069;-59
2022/03/24 00:26:46;;;;;;;;;;;;;;;21.70;39.63;102494.31;4971015;28;4224;-58
2022/03/24 00:29:12;;;;;;;;;;;;;;;21.69;39.58;102487.03;4973169;28;4327;-59
2022/03/24 00:31:39;;;;;;;;;;;;;;;21.69;39.61;102492.81;4974912;28;4234;-58
2022/03/24 00:34:05;;;;;;;;;;;;;;;21.67;39.31;102495.56;4972842;28;4181;-59
2022/03/24 00:36:31;;;;;;;;;;;;;;;21.68;39.66;102497.03;4976271;28;5269;-59
2022/03/24 00:38:58;;;;;;;;;;;;;;;21.67;39.33;102492.66;4974815;28;4217;-59
2022/03/24 00:41:24;;;;;;;;;;;;;;;21.70;39.67;102500.06;4975724;28;5301;-58
2022/03/24 00:43:51;;;;;;;;;;;;;;;21.69;39.70;102503.56;4970143;28;4237;-58
2022/03/24 00:46:20;;;;;;;;;;;;;;;21.69;39.59;102504.34;4973549;28;4178;-59
2022/03/24 00:48:46;;;;;;;;;;;;;;;21.68;39.59;102502.81;4958509;28;5455;-58
2022/03/24 00:51:15;;;;;;;;;;;;;;;21.67;39.58;102495.56;4955651;28;5282;-58
2022/03/24 00:53:42;;;;;;;;;;;;;;;21.69;39.34;102500.69;4976518;28;4294;-59
2022/03/24 00:56:09;;;;;;;;;;;;;;;21.69;39.45;102492.81;4973161;28;4199;-58
2022/03/24 00:58:35;;;;;;;;;;;;;;;21.70;39.48;102493.56;4970024;28;4225;-59
2022/03/24 01:01:03;;;;;;;;;;;;;;;21.68;39.58;102497.03;4970641;28;6445;-59
2022/03/24 01:03:29;;;;;;;;;;;;;;;21.69;39.63;102497.78;4974497;28;5228;-58
2022/03/24 01:05:57;;;;;;;;;;;;;;;21.67;39.67;102484.00;4975697;28;4555;-59
2022/03/24 01:08:23;;;;;;;;;;;;;;;21.69;39.73;102497.78;4977705;28;4241;-59
2022/03/24 01:10:50;;;;;;;;;;;;;;;21.68;39.51;102497.03;4971139;28;4334;-58
2022/03/24 01:13:16;;;;;;;;;;;;;;;21.69;39.49;102494.91;4979517;28;4172;-59
2022/03/24 01:15:45;;;;;;;;;;;;;;;21.67;39.24;102495.56;4981280;28;5109;-58
2022/03/24 01:18:14;;;;;;;;;;;;;;;21.67;39.51;102489.78;4972411;28;4169;-58
2022/03/24 01:20:41;;;;;;;;;;;;;;;21.66;39.50;102494.03;4975617;28;4170;-58
2022/03/24 01:23:08;;;;;;;;;;;;;;;21.66;39.23;102491.13;4979348;28;4150;-58
2022/03/24 01:25:34;;;;;;;;;;;;;;;21.64;39.52;102488.13;4979489;28;4032;-58
2022/03/24 01:28:01;;;;;;;;;;;;;;;21.66;39.49;102488.25;4977672;28;4183;-58
2022/03/24 01:30:27;;;;;;;;;;;;;;;21.67;39.50;102484.00;4976536;28;4175;-58
2022/03/24 01:32:53;;;;;;;;;;;;;;;21.67;39.57;102486.91;4978555;28;5385;-58
2022/03/24 01:35:20;;;;;;;;;;;;;;;21.66;39.56;102482.50;4961792;28;4257;-58
2022/03/24 01:37:46;;;;;;;;;;;;;;;21.68;39.59;102479.75;4978535;28;4200;-58
2022/03/24 01:40:12;;;;;;;;;;;;;;;21.66;39.46;102476.72;4978542;28;5842;-59
2022/03/24 01:42:39;;;;;;;;;;;;;;;21.64;39.61;102475.84;4972206;28;4218;-59
2022/03/24 01:45:06;;;;;;;;;;;;;;;21.66;39.70;102476.72;4959318;28;5259;-59
2022/03/24 01:47:34;;;;;;;;;;;;;;;21.66;39.39;102476.72;4980185;28;5386;-59
2022/03/24 01:50:00;;;;;;;;;;;;;;;21.65;39.44;102481.00;4976092;28;4042;-58
2022/03/24 01:52:28;;;;;;;;;;;;;;;21.66;39.48;102475.97;4974706;28;4338;-59
2022/03/24 01:54:56;;;;;;;;;;;;;;;21.64;39.48;102479.47;4973476;28;5355;-59
2022/03/24 01:57:22;;;;;;;;;;;;;;;21.66;39.55;102475.97;4975254;28;4276;-58
2022/03/24 01:59:48;;;;;;;;;;;;;;;21.64;39.50;102472.97;4967864;28;4158;-60
2022/03/24 02:02:15;;;;;;;;;;;;;;;21.61;39.46;102463.41;4972268;28;4257;-59
2022/03/24 02:04:43;;;;;;;;;;;;;;;21.63;39.44;102465.69;4977418;28;4189;-58
2022/03/24 02:07:11;;;;;;;;;;;;;;;21.64;39.19;102465.06;4977279;28;4091;-59
2022/03/24 02:09:37;;;;;;;;;;;;;;;21.66;39.39;102464.44;4970352;28;4243;-58
2022/03/24 02:12:04;;;;;;;;;;;;;;;21.64;39.27;102465.06;4960658;28;4250;-59
2022/03/24 02:14:31;;;;;;;;;;;;;;;21.66;39.51;102465.19;4976471;28;4431;-59
2022/03/24 02:16:57;;;;;;;;;;;;;;;21.65;39.55;102462.94;4960731;28;4425;-59
2022/03/24 02:19:24;;;;;;;;;;;;;;;21.64;39.45;102467.19;4974719;28;4106;-59
2022/03/24 02:21:51;;;;;;;;;;;;;;;21.65;39.36;102460.06;4972712;28;4221;-59
2022/03/24 02:24:18;;;;;;;;;;;;;;;21.64;39.34;102461.44;4976923;28;4236;-58
2022/03/24 02:26:44;;;;;;;;;;;;;;;21.64;39.41;102456.41;4973303;28;4205;-58
2022/03/24 02:29:11;;;;;;;;;;;;;;;21.64;39.47;102461.44;4969979;28;4255;-59
2022/03/24 02:31:38;;;;;;;;;;;;;;;21.63;39.55;102459.94;4974998;28;4253;-59
2022/03/24 02:36:54;;;;;;;;;;;;;;;21.63;39.35;102454.91;4974681;28;4415;-59
2022/03/24 02:39:20;;;;;;;;;;;;;;;21.63;39.46;102454.91;4975754;28;4185;-59
2022/03/24 02:41:49;;;;;;;;;;;;;;;21.63;39.33;102452.03;4975344;28;4020;-59
2022/03/24 02:44:17;;;;;;;;;;;;;;;21.64;39.31;102447.00;4972994;28;4333;-59
2022/03/24 02:46:44;;;;;;;;;;;;;;;21.63;39.38;102449.16;4975351;28;4156;-58
2022/03/24 02:49:11;;;;;;;;;;;;;;;21.64;39.52;102450.63;4973158;28;4274;-58
2022/03/24 02:51:37;;;;;;;;;;;;;;;21.60;39.41;102450.38;4975190;28;4089;-58
2022/03/24 02:54:07;;;;;;;;;;;;;;;21.63;39.52;102454.16;4973252;28;4343;-59
2022/03/24 02:56:34;;;;;;;;;;;;;;;21.63;39.52;102457.78;4974236;28;4144;-59
2022/03/24 02:59:00;;;;;;;;;;;;;;;21.62;39.49;102456.28;4977779;28;4676;-59
2022/03/24 03:01:27;;;;;;;;;;;;;;;21.62;39.38;102459.16;4974962;28;4240;-58
2022/03/24 03:03:53;;;;;;;;;;;;;;;21.62;39.48;102459.16;4976693;28;4212;-58
2022/03/24 03:06:24;;;;;;;;;;;;;;;21.62;39.39;102464.91;4974773;28;4312;-59
2022/03/24 03:08:51;;;;;;;;;;;;;;;21.63;39.42;102466.44;4975643;28;4180;-59
2022/03/24 03:11:18;;;;;;;;;;;;;;;21.61;39.43;102469.19;4973815;28;5264;-59
2022/03/24 03:13:45;;;;;;;;;;;;;;;21.60;39.55;102466.91;4974939;28;4062;-59
2022/03/24 03:16:12;;;;;;;;;;;;;;;21.57;39.43;102471.78;4971903;28;4160;-59
2022/03/24 03:18:41;;;;;;;;;;;;;;;21.58;39.49;102476.19;4978724;28;5398;-58
2022/03/24 03:21:08;;;;;;;;;;;;;;;21.56;39.36;102476.06;4976524;28;4197;-58
2022/03/24 03:23:38;;;;;;;;;;;;;;;21.59;39.30;102477.69;4970601;28;4245;-59
2022/03/24 03:26:05;;;;;;;;;;;;;;;21.59;39.21;102474.81;4967844;28;5457;-58
2022/03/24 03:28:31;;;;;;;;;;;;;;;21.59;39.38;102474.81;4974865;28;4303;-59
2022/03/24 03:30:58;;;;;;;;;;;;;;;21.60;39.35;102470.56;4976589;28;4225;-59
2022/03/24 03:33:24;;;;;;;;;;;;;;;21.59;39.31;102471.19;4974908;28;4256;-58
2022/03/24 03:35:51;;;;;;;;;;;;;;;21.58;39.38;102479.09;4976120;28;5542;-59
2022/03/24 03:38:18;;;;;;;;;;;;;;;21.61;39.42;102474.94;4971223;28;4256;-58
2022/03/24 03:40:45;;;;;;;;;;;;;;;21.61;39.19;102477.09;4976157;28;4251;-59
2022/03/24 03:43:12;;;;;;;;;;;;;;;21.59;39.44;102474.81;4974448;28;4433;-59
2022/03/24 03:45:44;;;;;;;;;;;;;;;21.59;39.47;102471.94;4973063;28;5242;-58
2022/03/24 03:48:11;;;;;;;;;;;;;;;21.58;39.29;102476.19;4974593;28;5265;-58
2022/03/24 03:50:37;;;;;;;;;;;;;;;21.59;39.18;102480.56;4976417;28;4287;-59
2022/03/24 03:53:04;;;;;;;;;;;;;;;21.60;39.15;102484.22;4971111;28;5531;-59
2022/03/24 03:55:30;;;;;;;;;;;;;;;21.60;39.16;102476.34;4973509;28;4373;-59
2022/03/24 03:57:56;;;;;;;;;;;;;;;21.61;39.02;102474.19;4974984;28;4269;-58
2022/03/24 04:03:08;;;;;;;;;;;;;;;21.62;39.37;102475.69;4970470;28;4237;-59
2022/03/24 04:05:34;;;;;;;;;;;;;;;21.60;39.41;102478.44;4975246;28;4248;-58
2022/03/24 04:08:01;;;;;;;;;;;;;;;21.59;39.26;102474.81;4973243;28;4225;-59
2022/03/24 04:10:28;;;;;;;;;;;;;;;21.60;39.36;102473.44;4976764;28;4240;-58
2022/03/24 04:12:55;;;;;;;;;;;;;;;21.57;39.25;102477.56;4967834;28;4093;-59
2022/03/24 04:15:21;;;;;;;;;;;;;;;21.58;39.21;102476.19;4974065;28;4346;-58
2022/03/24 04:17:48;;;;;;;;;;;;;;;21.57;39.25;102471.78;4973717;28;5248;-58
2022/03/24 04:20:20;;;;;;;;;;;;;;;21.57;39.30;102480.44;4975300;28;4210;-58
2022/03/24 04:22:48;;;;;;;;;;;;;;;21.58;39.23;102479.09;4974494;28;4242;-58
2022/03/24 04:25:17;;;;;;;;;;;;;;;21.59;39.15;102469.03;4974545;28;4167;-58
2022/03/24 04:27:43;;;;;;;;;;;;;;;21.57;39.35;102474.69;4978781;28;4358;-59
2022/03/24 04:30:12;;;;;;;;;;;;;;;21.55;39.13;102465.88;4976428;28;4177;-58
2022/03/24 04:32:38;;;;;;;;;;;;;;;21.56;39.21;102467.41;4975703;28;4243;-58
2022/03/24 04:35:05;;;;;;;;;;;;;;;21.58;39.33;102472.53;4976132;28;4052;-57
2022/03/24 04:37:32;;;;;;;;;;;;;;;21.55;39.35;102474.53;4972292;28;4249;-57
2022/03/24 04:39:58;;;;;;;;;;;;;;;21.57;39.14;102468.16;4979219;28;4198;-58
2022/03/24 04:42:24;;;;;;;;;;;;;;;21.58;39.42;102469.66;4980979;28;4229;-58
2022/03/24 04:44:51;;;;;;;;;;;;;;;21.59;39.17;102460.41;4977926;28;5257;-58
2022/03/24 04:47:17;;;;;;;;;;;;;;;21.60;39.16;102470.56;4977244;28;4281;-58
2022/03/24 04:49:43;;;;;;;;;;;;;;;21.60;39.29;102467.69;4977128;28;4257;-58
2022/03/24 04:52:10;;;;;;;;;;;;;;;21.62;39.11;102459.16;4973808;28;4343;-58
2022/03/24 04:54:36;;;;;;;;;;;;;;;21.58;39.16;102453.13;4978763;28;4332;-58
2022/03/24 04:57:03;;;;;;;;;;;;;;;21.61;39.02;102463.41;4968372;28;4171;-58
2022/03/24 04:59:29;;;;;;;;;;;;;;;21.62;39.16;102464.91;4977078;28;4163;-58
2022/03/24 05:01:56;;;;;;;;;;;;;;;21.61;39.26;102468.44;4972629;28;4137;-58
2022/03/24 05:04:24;;;;;;;;;;;;;;;21.63;39.11;102454.91;4978965;28;4261;-58
2022/03/24 05:06:50;;;;;;;;;;;;;;;21.59;39.06;102460.41;4974708;28;5294;-58
2022/03/24 05:09:17;;;;;;;;;;;;;;;21.54;39.23;102468.03;4976267;28;4411;-58
2022/03/24 05:11:43;;;;;;;;;;;;;;;21.52;39.17;102462.13;4971555;28;4220;-58
2022/03/24 05:14:10;;;;;;;;;;;;;;;21.51;39.01;102471.41;4979363;28;4146;-58
2022/03/24 05:16:36;;;;;;;;;;;;;;;21.50;39.15;102464.84;4975511;28;4075;-58
2022/03/24 05:19:03;;;;;;;;;;;;;;;21.50;39.07;102464.84;4978258;28;4095;-58
2022/03/24 05:21:31;;;;;;;;;;;;;;;21.50;38.96;102467.00;4977330;28;4339;-58
2022/03/24 05:23:57;;;;;;;;;;;;;;;21.53;39.04;102468.63;4977225;28;4176;-58
2022/03/24 05:26:24;;;;;;;;;;;;;;;21.53;38.78;102469.41;4979047;28;5497;-58
2022/03/24 05:28:51;;;;;;;;;;;;;;;21.54;38.92;102467.28;4976964;28;4241;-58
2022/03/24 05:31:17;;;;;;;;;;;;;;;21.55;38.99;102477.41;4971605;28;4230;-58
2022/03/24 05:33:43;;;;;;;;;;;;;;;21.52;39.16;102470.75;4970870;28;4194;-58
2022/03/24 05:36:10;;;;;;;;;;;;;;;21.55;39.09;102465.88;4978012;28;4210;-58
2022/03/24 05:38:36;;;;;;;;;;;;;;;21.54;39.07;102467.28;4973044;28;4345;-58
2022/03/24 05:41:03;;;;;;;;;;;;;;;21.53;39.12;102468.63;4976638;28;4174;-58
2022/03/24 05:43:30;;;;;;;;;;;;;;;21.51;39.09;102471.41;4975179;28;4156;-57
2022/03/24 05:45:56;;;;;;;;;;;;;;;21.53;39.35;102471.50;4975703;28;4299;-58
2022/03/24 05:48:23;;;;;;;;;;;;;;;21.53;39.18;102462.88;4977583;28;6448;-58
2022/03/24 05:51:08;;;;;;;;;;;;;;;21.51;39.32;102477.91;4968353;28;4294;-59
2022/03/24 05:53:34;;;;;;;;;;;;;;;21.55;39.61;102474.53;4977027;28;4391;-59
2022/03/24 05:56:01;;;;;;;;;;;;;;;21.51;39.62;102466.38;4968142;28;4119;-59
2022/03/24 05:58:27;;;;;;;;;;;;;;;21.56;39.71;102478.94;4974920;28;4249;-58
2022/03/24 06:00:53;;;;;;;;;;;;;;;21.61;39.65;102485.72;4971796;28;5435;-60
2022/03/24 06:03:21;;;;;;;;;;;;;;;20.81;33.28;102489.66;4970753;28;4254;-58
2022/03/24 06:05:48;;;;;;;;;;;;;;;20.97;33.51;102483.53;4963334;28;4354;-58
2022/03/24 06:08:14;;;;;;;;;;;;;;;21.17;34.30;102489.94;4979785;28;4317;-58
2022/03/24 06:10:41;;;;;;;;;;;;;;;21.28;36.96;102489.25;4974469;28;4172;-59
2022/03/24 06:13:08;;;;;;;;;;;;;;;21.32;37.68;102487.41;4970806;28;4341;-59
2022/03/24 06:15:34;;;;;;;;;;;;;;;21.38;38.10;102489.22;4976268;28;4234;-59
2022/03/24 06:18:00;;;;;;;;;;;;;;;21.40;37.86;102492.22;4974722;28;4187;-59
2022/03/24 06:20:27;;;;;;;;;;;;;;;21.43;38.54;102488.13;4973728;28;4588;-59
2022/03/24 06:22:53;;;;;;;;;;;;;;;21.43;38.98;102485.25;4975384;28;4433;-59
2022/03/24 06:25:19;;;;;;;;;;;;;;;21.45;38.53;102496.91;4968480;28;4062;-59
2022/03/24 06:27:50;;;;;;;;;;;;;;;21.27;37.80;102491.38;4966676;28;4088;-59
2022/03/24 06:30:16;;;;;;;;;;;;;;;21.29;37.98;102491.53;4974706;28;4166;-59
2022/03/24 06:32:42;;;;;;;;;;;;;;;21.32;37.75;102501.81;4977854;28;4167;-59
2022/03/24 06:35:09;;;;;;;;;;;;;;;21.37;37.94;102496.31;4976991;28;5261;-61
2022/03/24 06:37:41;;;;;;;;;;;;;;;21.37;38.31;102505.72;4967798;28;6290;-61
2022/03/24 06:40:11;;;;;;;;;;;;;;;21.49;37.94;102505.84;4965146;28;5202;-61
2022/03/24 06:42:37;;;;;;;;;;;;;;;21.57;38.01;102509.28;4976351;28;4092;-61
2022/03/24 06:45:04;;;;;;;;;;;;;;;21.59;37.92;102511.53;4972312;28;4250;-60
2022/03/24 06:47:31;;;;;;;;;;;;;;;21.59;37.34;102506.53;4972771;28;4161;-62
2022/03/24 06:49:57;;;;;;;;;;;;;;;21.61;37.34;102509.53;4969446;28;4200;-61
2022/03/24 06:52:23;;;;;;;;;;;;;;;21.60;37.33;102508.06;4958334;28;4212;-60
2022/03/24 06:54:50;;;;;;;;;;;;;;;21.62;37.34;102508.16;4964016;28;5301;-61
2022/03/24 06:57:16;;;;;;;;;;;;;;;21.63;37.08;102506.06;4970445;28;4186;-60
2022/03/24 06:59:42;;;;;;;;;;;;;;;21.63;36.76;102506.81;4966592;28;4255;-60
2022/03/24 07:02:09;;;;;;;;;;;;;;;21.64;36.66;102508.31;4965983;28;4774;-59
2022/03/24 07:04:36;;;;;;;;;;;;;;;21.65;36.87;102509.81;4973593;28;4237;-59
2022/03/24 07:07:03;;;;;;;;;;;;;;;21.67;36.99;102497.66;4968030;28;5955;-61
2022/03/24 07:09:30;;;;;;;;;;;;;;;21.73;36.51;102515.38;4956854;28;6235;-62
2022/03/24 07:11:56;;;;;;;;;;;;;;;21.79;36.17;102504.25;4948404;28;4219;-60
2022/03/24 07:14:23;;;;;;;;;;;;;;;21.78;36.28;102505.63;4974475;28;4281;-62
2022/03/24 07:16:49;;;;;;;;;;;;;;;21.74;36.86;102511.88;4970102;28;4296;-61
2022/03/24 07:19:16;;;;;;;;;;;;;;;21.71;36.61;102506.59;4971821;28;4236;-61
2022/03/24 07:21:42;;;;;;;;;;;;;;;21.73;36.83;102507.47;4972791;28;4240;-59
2022/03/24 07:24:08;;;;;;;;;;;;;;;21.78;37.07;102514.25;4975159;28;5094;-60
2022/03/24 07:26:35;;;;;;;;;;;;;;;21.84;37.35;102511.03;4972443;28;5551;-63
2022/03/24 07:29:01;;;;;;;;;;;;;;;21.91;37.80;102510.06;4969773;28;5252;-59
2022/03/24 07:31:28;;;;;;;;;;;;;;;21.94;37.34;102520.34;4975496;28;4240;-71
2022/03/24 07:33:56;;;;;;;;;;;;;;;21.33;33.81;102519.88;4972809;28;4272;-61
2022/03/24 07:36:22;;;;;;;;;;;;;;;21.39;33.16;102516.66;4974115;28;4072;-62
2022/03/24 07:38:49;;;;;;;;;;;;;;;21.57;33.72;102514.28;4972284;28;4271;-60
2022/03/24 07:41:15;;;;;;;;;;;;;;;21.70;35.73;102514.47;4970899;28;4264;-60
2022/03/24 07:43:42;;;;;;;;;;;;;;;21.78;36.96;102510.63;4975000;28;4266;-62
2022/03/24 07:46:08;;;;;;;;;;;;;;;21.80;37.03;102513.66;4971152;28;4192;-60
2022/03/24 07:48:34;;;;;;;;;;;;;;;21.80;37.61;102520.16;4967289;28;4211;-60
2022/03/24 07:51:01;;;;;;;;;;;;;;;21.79;37.19;102512.16;4965076;28;4270;-62
2022/03/24 07:53:27;;;;;;;;;;;;;;;21.80;37.16;102516.53;4970490;28;4264;-62
2022/03/24 07:55:54;;;;;;;;;;;;;;;21.78;37.62;102507.75;4973435;28;5383;-63
2022/03/24 07:58:21;;;;;;;;;;;;;;;21.80;37.37;102520.16;4976203;28;4233;-63
2022/03/24 08:00:47;;;;;;;;;;;;;;;21.82;37.32;102516.69;4969380;28;4166;-62
2022/03/24 08:03:14;;;;;;;;;;;;;;;21.83;37.20;102518.19;4964659;28;4201;-60
2022/03/24 08:05:41;;;;;;;;;;;;;;;21.85;37.83;102512.53;4972750;28;4506;-62
2022/03/24 08:08:09;;;;;;;;;;;;;;;21.85;37.59;102521.97;4971573;28;4214;-62
2022/03/24 08:10:39;;;;;;;;;;;;;;;21.84;37.89;102526.22;4968863;28;5395;-62
2022/03/24 08:13:06;;;;;;;;;;;;;;;21.84;38.19;102522.59;4975642;28;4192;-63
2022/03/24 08:15:32;;;;;;;;;;;;;;;20.98;38.26;102520.38;4982613;28;5287;-61
2022/03/24 08:17:59;;;;;;;;;;;;;;;21.43;38.47;102523.47;4970007;28;4338;-61
2022/03/24 08:20:25;;;;;;;;;;;;;;;21.62;38.15;102508.16;4976592;28;4126;-61
2022/03/24 08:22:52;;;;;;;;;;;;;;;21.72;38.16;102516.75;4965034;28;4212;-62
2022/03/24 08:25:19;;;;;;;;;;;;;;;21.81;38.01;102515.19;4979163;28;4054;-62
2022/03/24 08:27:45;;;;;;;;;;;;;;;21.77;38.65;102520.66;4981801;28;4162;-62
2022/03/24 08:30:12;;;;;;;;;;;;;;;21.77;38.67;102527.19;4977713;28;4150;-62
2022/03/24 08:32:39;;;;;;;;;;;;;;;21.80;38.26;102525.19;4968101;28;4165;-62
2022/03/24 08:35:06;;;;;;;;;;;;;;;21.83;38.48;102518.19;4973257;28;4834;-62
2022/03/24 08:37:33;;;;;;;;;;;;;;;21.84;38.50;102523.34;4976776;28;4093;-66
2022/03/24 08:40:02;;;;;;;;;;;;;;;21.97;38.47;102519.13;4971944;28;4249;-66
2022/03/24 08:42:28;;;;;;;;;;;;;;;22.04;38.75;102523.19;4975067;28;5314;-61
2022/03/24 08:44:54;;;;;;;;;;;;;;;22.06;38.84;102524.06;4975193;28;5263;-66
2022/03/24 08:47:21;;;;;;;;;;;;;;;22.09;38.79;102528.59;4972435;28;4259;-59
2022/03/24 08:49:48;;;;;;;;;;;;;;;22.11;38.86;102530.84;4973735;28;5304;-59
2022/03/24 08:52:14;;;;;;;;;;;;;;;22.12;38.63;102533.09;4976639;28;4355;-60
2022/03/24 08:54:40;;;;;;;;;;;;;;;22.11;38.59;102533.75;4969418;28;4257;-60
2022/03/24 08:57:07;;;;;;;;;;;;;;;22.15;38.86;102536.88;4973685;28;4203;-61
2022/03/24 08:59:33;;;;;;;;;;;;;;;22.16;38.87;102536.25;4975246;28;4240;-66
2022/03/24 09:02:00;;;;;;;;;;;;;;;22.22;38.54;102546.72;4974368;28;5551;-65
2022/03/24 09:04:26;;;;;;;;;;;;;;;22.23;38.67;102542.47;4974118;28;4264;-70
2022/03/24 09:06:53;;;;;;;;;;;;;;;22.25;38.74;102539.72;4973240;28;4091;-64
2022/03/24 09:09:22;;;;;;;;;;;;;;;22.30;38.87;102538.59;4976711;28;4318;-63
2022/03/24 09:11:49;;;;;;;;;;;;;;;22.29;38.80;102534.97;4971463;28;3962;-62
2022/03/24 09:14:16;;;;;;;;;;;;;;;22.28;38.82;102535.56;4974239;28;4200;-60
2022/03/24 09:16:42;;;;;;;;;;;;;;;22.30;38.76;102538.59;4977940;28;5243;-59
2022/03/24 09:19:14;;;;;;;;;;;;;;;22.30;38.93;102541.47;4978168;28;4146;-60
2022/03/24 09:21:40;;;;;;;;;;;;;;;22.31;38.85;102535.09;4968916;28;4320;-61
2022/03/24 09:24:07;;;;;;;;;;;;;;;22.32;38.86;102538.72;4973144;28;4032;-61
2022/03/24 09:26:36;;;;;;;;;;;;;;;22.36;38.99;102539.75;4976639;28;4133;-65
2022/03/24 09:29:02;;;;;;;;;;;;;;;22.37;39.00;102543.38;4975336;28;4228;-66
2022/03/24 09:31:28;;;;;;;;;;;;;;;22.39;38.95;102546.41;4975113;28;4035;-60
2022/03/24 09:33:55;;;;;;;;;;;;;;;22.39;38.79;102549.28;4972722;28;4201;-63
2022/03/24 09:36:22;;;;;;;;;;;;;;;22.43;38.89;102543.03;4980392;28;4076;-63
2022/03/24 09:38:48;;;;;;;;;;;;;;;22.51;38.88;102544.28;4977178;28;3970;-64
2022/03/24 09:41:28;;;;;;;;;;;;;;;22.52;38.77;102539.28;4975933;28;3946;-63
2022/03/24 09:43:55;;;;;;;;;;;;;;;22.54;38.75;102543.06;4963421;28;4153;-64
2022/03/24 09:46:22;;;;;;;;;;;;;;;22.61;38.49;102546.31;4979961;28;4047;-61
2022/03/24 09:48:49;;;;;;;;;;;;;;;22.47;38.02;102549.81;4970074;28;4187;-72
2022/03/24 09:51:15;;;;;;;;;;;;;;;22.05;33.09;102536.97;4974756;28;4193;-61
2022/03/24 09:53:41;;;;;;;;;;;;;;;22.20;34.70;102537.91;4975819;28;3996;-60
2022/03/24 09:56:08;;;;;;;;;;;;;;;22.35;37.32;102537.47;4978215;28;5536;-60
2022/03/24 09:58:35;;;;;;;;;;;;;;;22.47;37.06;102543.28;4979643;28;4184;-61
2022/03/24 10:01:02;;;;;;;;;;;;;;;22.50;36.89;102537.03;4978035;28;4340;-61
2022/03/24 10:03:28;;;;;;;;;;;;;;;22.65;36.75;102535.78;4973731;28;4235;-64
2022/03/24 10:05:59;;;;;;;;;;;;;;;22.68;36.76;102545.34;4973369;28;4235;-66
2022/03/24 10:08:25;;;;;;;;;;;;;;;22.71;37.06;102538.31;4977538;28;5259;-63
2022/03/24 10:10:59;;;;;;;;;;;;;;;22.73;36.97;102535.56;4978098;28;4239;-64
2022/03/24 10:13:41;;;;;;;;;;;;;;;22.72;37.11;102531.16;4982292;28;4223;-63
2022/03/24 10:16:09;;;;;;;;;;;;;;;22.80;36.87;102529.53;4980398;28;4288;-63
2022/03/24 10:18:35;;;;;;;;;;;;;;;22.80;36.92;102531.69;4976977;28;5131;-63
2022/03/24 10:21:03;;;;;;;;;;;;;;;22.77;37.43;102530.06;4976025;28;4205;-63
2022/03/24 10:23:33;;;;;;;;;;;;;;;22.78;37.34;102523.63;4978695;28;4181;-63
2022/03/24 10:26:03;;;;;;;;;;;;;;;22.78;37.46;102526.50;4978973;28;4142;-63
2022/03/24 10:28:29;;;;;;;;;;;;;;;22.88;37.69;102525.63;4975096;28;4173;-64
2022/03/24 10:30:58;;;;;;;;;;;;;;;22.85;37.28;102516.09;4979828;28;4235;-65
2022/03/24 10:33:28;;;;;;;;;;;;;;;22.79;37.66;102519.38;4978564;28;5432;-63
2022/03/24 10:36:33;;;;;;;;;;;;;;;22.76;37.45;102516.97;4978953;28;4186;-63
2022/03/24 10:39:04;;;;;;;;;;;;;;;22.82;37.60;102517.38;4914376;29;4161;-64
2022/03/24 10:41:31;;;;;;;;;;;;;;;22.77;37.84;102516.34;4913766;29;4258;-64
2022/03/24 10:43:58;;;;;;;;;;;;;;;22.76;37.81;102516.97;4946134;28;5277;-62
2022/03/24 10:46:25;;;;;;;;;;;;;;;22.79;38.06;102515.72;4975905;28;4299;-63
2022/03/24 10:48:52;;;;;;;;;;;;;;;22.80;37.75;102517.22;4979621;28;5833;-63
2022/03/24 10:51:22;;;;;;;;;;;;;;;22.81;38.13;102512.94;4974343;28;4204;-61
2022/03/24 10:53:48;;;;;;;;;;;;;;;22.81;38.11;102507.16;4981057;28;4189;-63
2022/03/24 10:56:16;;;;;;;;;;;;;;;22.85;37.92;102512.47;4978389;28;4148;-63
2022/03/24 10:58:44;;;;;;;;;;;;;;;22.82;38.00;102513.72;4983475;28;4191;-63
2022/03/24 11:01:11;;;;;;;;;;;;;;;22.86;38.47;102503.19;4974878;28;4189;-62
2022/03/24 11:03:39;;;;;;;;;;;;;;;22.82;38.57;102508.69;4978213;28;5337;-62
2022/03/24 11:06:09;;;;;;;;;;;;;;;22.84;38.52;102505.94;4975399;28;4164;-63
2022/03/24 11:08:35;;;;;;;;;;;;;;;22.85;38.60;102498.78;4979405;28;4213;-60
2022/03/24 11:11:04;;;;;;;;;;;;;;;22.78;38.48;102502.66;4978816;28;4260;-63
2022/03/24 11:13:39;;;;;;;;;;;;;;;22.74;38.54;102497.38;4971976;28;4271;-65
2022/03/24 11:16:05;;;;;;;;;;;;;;;22.78;38.51;102491.09;4978905;28;4275;-59
2022/03/24 11:18:31;;;;;;;;;;;;;;;22.86;38.73;102485.06;4975242;28;4143;-59
2022/03/24 11:21:03;;;;;;;;;;;;;;;22.86;38.68;102485.84;4976857;28;4062;-60
2022/03/24 11:23:34;;;;;;;;;;;;;;;22.80;38.61;102488.34;4975878;28;5531;-60
2022/03/24 11:26:02;;;;;;;;;;;;;;;22.76;38.53;102488.09;4976571;28;5203;-60
2022/03/24 11:28:29;;;;;;;;;;;;;;;22.74;38.60;102480.03;4974698;28;4229;-61
2022/03/24 11:30:55;;;;;;;;;;;;;;;22.80;38.34;102474.66;4979170;28;4246;-64
2022/03/24 11:33:21;;;;;;;;;;;;;;;22.82;38.76;102476.19;4975848;28;5315;-65
2022/03/24 11:35:51;;;;;;;;;;;;;;;22.78;38.60;102477.41;4967045;28;5357;-65
2022/03/24 11:38:18;;;;;;;;;;;;;;;22.79;38.42;102475.28;4979684;28;4265;-62
2022/03/24 11:40:44;;;;;;;;;;;;;;;22.72;38.38;102470.50;4970366;28;4273;-70
2022/03/24 11:43:15;;;;;;;;;;;;;;;22.49;37.33;102474.13;4967602;28;4084;-60
2022/03/24 11:46:02;;;;;;;;;;;;;;;22.35;36.74;102457.41;4973544;28;4555;-60
2022/03/24 11:48:33;;;;;;;;;;;;;;;22.43;37.59;102462.97;4965231;28;4017;-61
2022/03/24 11:51:03;;;;;;;;;;;;;;;22.44;38.05;102464.47;4967606;28;4436;-61
2022/03/24 11:53:29;;;;;;;;;;;;;;;22.54;38.68;102455.69;4973749;28;4193;-59
2022/03/24 11:55:59;;;;;;;;;;;;;;;22.67;38.84;102454.31;4972447;28;4257;-58
2022/03/24 11:58:25;;;;;;;;;;;;;;;22.70;39.30;102458.81;4973265;28;4205;-60
2022/03/24 12:00:52;;;;;;;;;;;;;;;22.68;39.54;102450.06;4967661;28;6309;-60
2022/03/24 12:03:36;;;;;;;;;;;;;;;22.71;39.28;102449.53;4971991;28;4044;-60
2022/03/24 12:06:05;;;;;;;;;;;;;;;22.70;39.02;102450.16;4975822;28;4106;-59
2022/03/24 12:08:42;;;;;;;;;;;;;;;22.76;39.60;102441.88;4972501;28;3982;-59
2022/03/24 12:11:27;;;;;;;;;;;;;;;22.68;39.21;102429.84;4968577;28;4117;-59
2022/03/24 12:13:55;;;;;;;;;;;;;;;22.71;38.29;102446.66;4974459;28;4219;-59
2022/03/24 12:16:23;;;;;;;;;;;;;;;22.61;37.64;102431.59;4973593;28;4575;-60
2022/03/24 12:18:50;;;;;;;;;;;;;;;22.56;35.93;102430.59;4973119;28;4091;-59
2022/03/24 12:21:20;;;;;;;;;;;;;;;22.63;35.91;102436.72;4975840;28;4539;-60
2022/03/24 12:24:06;;;;;;;;;;;;;;;22.58;38.21;102427.06;4971308;28;4202;-60
2022/03/24 12:26:36;;;;;;;;;;;;;;;22.60;39.26;102430.06;4971130;28;4189;-60
2022/03/24 12:29:11;;;;;;;;;;;;;;;22.74;39.36;102427.31;4969811;28;4149;-61
2022/03/24 12:31:56;;;;;;;;;;;;;;;22.71;38.59;102423.56;4975261;28;4229;-60
2022/03/24 12:34:26;;;;;;;;;;;;;;;22.66;38.77;102421.06;4975087;28;4157;-65
2022/03/24 12:36:53;;;;;;;;;;;;;;;22.66;39.16;102412.38;4976591;28;5471;-66
2022/03/24 12:39:32;;;;;;;;;;;;;;;22.71;39.28;102417.03;4972477;28;4226;-61
2022/03/24 12:42:12;;;;;;;;;;;;;;;22.72;38.92;102406.97;4973640;28;4291;-64
2022/03/24 12:44:48;;;;;;;;;;;;;;;22.72;38.97;102406.97;4973398;28;4216;-66
2022/03/24 12:47:31;;;;;;;;;;;;;;;22.69;38.63;102403.22;4970440;28;4155;-74
2022/03/24 12:49:58;;;;;;;;;;;;;;;22.73;38.41;102402.72;4972081;28;4296;-63
2022/03/24 12:52:43;;;;;;;;;;;;;;;22.72;37.21;102398.31;4973595;28;5470;-67
2022/03/24 12:55:38;;;;;;;;;;;;;;;22.71;37.61;102400.44;4974480;28;4223;-66
2022/03/24 12:58:08;;;;;;;;;;;;;;;22.74;37.49;102392.66;4958182;28;4182;-62